Flight Track Log - Related Links

Times and Time Zones

All times are in EDT time to prevent confusion due to time zone crossing. See the EGF9800 flight status page for this flight to view local times or setup timezone preferences in your user account.

Time Position Orientation Groundspeed Altitude Reporting Facility
EDT Latitude Longitude Course Direction KTS MPH feet Rate Location/Type
Sun 10:52:30 AM 29.2975 -105.3028 49° Northeast 393 452 23,800  Level Albuquerque Center
Sun 10:53:32 AM 29.3700 -105.2056 49° Northeast 402 463 25,600 1,756 Climbing Albuquerque Center
Sun 10:54:33 AM 29.4442 -105.1075 49° Northeast 407 468 27,400 1,756 Climbing Albuquerque Center
Sun 10:55:35 AM 29.5189 -105.0075 49° Northeast 412 474 29,200 1,452 Climbing Albuquerque Center
Sun 10:56:37 AM 29.5944 -104.9075 49° Northeast 414 476 30,400 878 Climbing Albuquerque Center
Sun 10:57:38 AM 29.6744 -104.8003 49° Northeast 434 499 31,000 293 Climbing Albuquerque Center
Sun 10:58:40 AM 29.7578 -104.6881 49° Northeast 457 526 31,000  Level Albuquerque Center
Sun 10:59:41 AM 29.8558 -104.5544 50° Northeast 459 528 31,000  Level Albuquerque Center
Sun 11:00:43 AM 29.9069 -104.4233 66° East 453 521 31,000  Level Albuquerque Center
Sun 11:01:45 AM 29.9558 -104.2911 67° East 451 519 31,000  Level Albuquerque Center
Sun 11:02:46 AM 30.0056 -104.1600 66° East 450 518 31,000  Level Albuquerque Center
Sun 11:03:48 AM 30.0547 -104.0278 67° East 450 518 31,000  Level Albuquerque Center
Sun 11:04:50 AM 30.1042 -103.8944 67° East 453 521 31,000  Level Albuquerque Center
Sun 11:05:51 AM 30.1539 -103.7600 67° East 456 525 31,000  Level Albuquerque Center
Sun 11:06:53 AM 30.2133 -103.5978 67° East 458 527 31,000  Level Albuquerque Center
Sun 11:07:55 AM 30.2586 -103.4756 67° East 460 529 31,000  Level Albuquerque Center
Sun 11:08:56 AM 30.3192 -103.3122 67° East 461 531 31,000  Level Albuquerque Center
Sun 11:09:58 AM 30.3675 -103.1750 68° East 462 532 31,000  Level Albuquerque Center
Sun 11:10:59 AM 30.4189 -103.0378 66° East 465 535 31,000 98 Level Albuquerque Center
Sun 11:12:01 AM 30.4683 -102.8992 67° East 467 537 31,200 532 Climbing Albuquerque Center
Sun 11:13:03 AM 30.5192 -102.7642 66° East 463 533 32,100 878 Climbing Albuquerque Center
Sun 11:14:04 AM 30.5683 -102.6297 67° East 456 525 33,000 439 Climbing Albuquerque Center
Sun 11:15:06 AM 30.6175 -102.4917 67° East 460 529 33,000  Level Albuquerque Center
Sun 11:16:08 AM 30.6792 -102.3192 67° East 478 550 33,000  Level Albuquerque Center
Sun 11:17:09 AM 30.7303 -102.1725 68° East 487 560 33,000 -49 Level Albuquerque Center
Sun 11:18:11 AM 30.7808 -102.0292 68° East 487 560 32,900  Descending Albuquerque Center
Sun 11:19:13 AM 30.8314 -101.8853 68° East 486 559 33,000 49 Climbing Albuquerque Center
Sun 11:20:14 AM 30.8800 -101.7458 68° East 477 549 33,000  Level Albuquerque Center
Sun 11:21:46 AM 30.9650 -101.5119 67° East 478 550 33,000  Level Fort Worth Center
Sun 11:22:14 AM 30.9789 -101.4636 71° East 473 544 33,000  Level Houston Center
Sun 11:23:16 AM 31.0272 -101.3269 68° East 474 545 33,000  Level Houston Center
Sun 11:24:17 AM 31.0861 -101.1561 68° East 473 544 33,000  Level Houston Center
Sun 11:25:19 AM 31.1344 -101.0211 67° East 448 516 33,000  Level Houston Center
Sun 11:26:20 AM 31.1792 -100.8881 69° East 438 504 33,000  Level Houston Center
Sun 11:26:46 AM 31.1981 -100.8350 67° East 445 512 33,000  Level Fort Worth Center
Sun 11:27:46 AM 31.2458 -100.6911 69° East 457 526 33,000 200 Level Fort Worth Center
Sun 11:28:46 AM 31.2975 -100.5422 68° East 471 542 33,400 700 Climbing Fort Worth Center
Sun 11:29:46 AM 31.3514 -100.3858 68° East 471 542 34,400 800 Climbing Fort Worth Center
Sun 11:30:46 AM 31.3986 -100.2389 69° East 471 542 35,000 300 Climbing Fort Worth Center
Sun 11:31:46 AM 31.4500 -100.0847 69° East 488 562 35,000  Level Fort Worth Center
Sun 11:32:46 AM 31.4992 -99.9325 69° East 493 567 35,000  Level Fort Worth Center
Sun 11:33:46 AM 31.5481 -99.7803 69° East 493 567 35,000  Level Fort Worth Center
Sun 11:34:46 AM 31.5986 -99.6306 68° East 498 573 35,000  Level Fort Worth Center
Sun 11:35:46 AM 31.6492 -99.4803 68° East 493 567 35,000 -50 Level Fort Worth Center
Sun 11:36:46 AM 31.6975 -99.3300 69° East 488 562 34,900 -950 Descending Fort Worth Center
Sun 11:37:46 AM 31.7458 -99.1747 70° East 488 562 33,100 -1,900 Descending Fort Worth Center
Sun 11:38:46 AM 31.7936 -99.0289 69° East 481 554 31,100 -2,000 Descending Fort Worth Center
Sun 11:39:46 AM 31.8414 -98.8856 69° East 474 545 29,100 -1,750 Descending Fort Worth Center
Sun 11:40:46 AM 31.8781 -98.7686 70° East 474 545 27,600 -1,850 Descending Fort Worth Center
Sun 11:41:46 AM 31.9256 -98.6178 70° East 455 524 25,400 -2,300 Descending Fort Worth Center
Sun 11:42:46 AM 31.9731 -98.4639 70° East 450 518 23,000 -2,150 Descending Fort Worth Center
Sun 11:43:46 AM 32.0156 -98.3494 66° East 431 496 21,100 -2,050 Descending Fort Worth Center
Sun 11:44:46 AM 32.0833 -98.2078 61° Northeast 438 504 18,900 -2,000 Descending Fort Worth Center
Sun 11:45:46 AM 32.1361 -98.1103 57° Northeast 414 476 17,100 -2,100 Descending Fort Worth Center
Sun 11:46:46 AM 32.2017 -97.9928 57° Northeast 382 440 14,700 -2,200 Descending Fort Worth Center
Sun 11:47:46 AM 32.2478 -97.9047 58° Northeast 357 411 12,700 -1,800 Descending Fort Worth Center
Sun 11:48:46 AM 32.3086 -97.8017 55° Northeast 345 397 11,100 -850 Descending Fort Worth Center
Sun 11:49:46 AM 32.3550 -97.7158 57° Northeast 345 397 11,000 -50 Descending Fort Worth Center
Sun 11:50:46 AM 32.4136 -97.6103 57° Northeast 345 397 11,000  Level Fort Worth Center
Sun 11:51:46 AM 32.4597 -97.5242 58° Northeast 345 397 11,000  Level Fort Worth Center
Sun 11:52:46 AM 32.5328 -97.4331 46° Northeast 340 391 11,000  Level Fort Worth Center
Sun 11:53:46 AM 32.5933 -97.3592 46° Northeast 340 391 11,000  Level Fort Worth Center
Sun 11:54:46 AM 32.6642 -97.2728 46° Northeast 335 386 11,000  Level Fort Worth Center
Sun 11:55:46 AM 32.7081 -97.2183 46° Northeast 278 320 11,000  Level Fort Worth Center
Sun 11:56:46 AM 32.7600 -97.1689 39° Northeast 223 257 11,000 -1,200 Level Fort Worth Center
Sun 11:57:46 AM 32.8144 -97.1686 360° North 202 232 8,600 -2,250 Descending Fort Worth Center
Sun 11:58:46 AM 32.8811 -97.1711 358° North 215 247 6,500 -1,350 Descending Fort Worth Center
Sun 11:59:46 AM 32.9353 -97.1683 North 215 247 5,900 -950 Descending Fort Worth Center
Sun 12:00:46 PM 33.0000 -97.1658 North 215 247 4,600 -1,200 Descending Fort Worth Center
Sun 12:01:46 PM 33.0503 -97.1508 14° North 210 242 3,500 -923 Descending Fort Worth Center
Sun 12:02:30 PM 33.0667 -97.1000 69° East 197 227 3,000 -291 Descending Dallas / Fort Worth TRACON
Sun 12:03:29 PM 33.0333 -97.0667 140° Southeast 179 206 3,000 -450 Level Dallas / Fort Worth TRACON
Sun 12:04:30 PM 32.9833 -97.0500 164° South 168 193 2,100 -900 Descending Dallas / Fort Worth TRACON
Sun 12:05:29 PM 32.9500 -97.0500 180° South 127 146 1,200 -915 Descending Dallas / Fort Worth TRACON

Login

Don't have an account? Register now (free) for customized features, flight alerts, and more!